This is the latest recevied weather packets stored in our database for station/object DL1MX-13. If no packets are shown the sender has not sent any weather packets the latest 1 day(s).
| Time | Temp. | Humidity | Pressure | Rain* | Wind** | Luminosity | Snow |
|---|---|---|---|---|---|---|---|
| 1777992181 | 12.78° C | 88% | 1008.8 hPa | 0 mm | 2.24 m/s, 225° | - | - |
| 1777992122 | 12.78° C | 88% | 1008.9 hPa | 0 mm | 2.24 m/s, 225° | - | - |
| 1777992062 | 12.78° C | 88% | 1008.8 hPa | 0 mm | 2.24 m/s, 225° | - | - |
| 1777992001 | 12.78° C | 88% | 1008.8 hPa | 0 mm | 1.79 m/s, 222° | - | - |
| 1777991942 | 12.78° C | 88% | 1008.9 hPa | 0 mm | 1.79 m/s, 222° | - | - |
| 1777991881 | 12.78° C | 88% | 1008.9 hPa | 0 mm | 2.24 m/s, 222° | - | - |
| 1777991822 | 12.78° C | 88% | 1008.9 hPa | 0 mm | 2.24 m/s, 222° | - | - |
| 1777991761 | 12.78° C | 88% | 1008.9 hPa | 0 mm | 2.68 m/s, 225° | - | - |
| 1777991702 | 12.78° C | 88% | 1008.9 hPa | 0 mm | 2.68 m/s, 225° | - | - |
| 1777991642 | 12.78° C | 88% | 1008.9 hPa | 0 mm | 2.68 m/s, 225° | - | - |
| 1777991582 | 12.78° C | 87% | 1008.9 hPa | 0 mm | 2.24 m/s, 225° | - | - |
| 1777991522 | 12.78° C | 87% | 1008.9 hPa | 0 mm | 2.24 m/s, 225° | - | - |
| 1777991461 | 12.78° C | 87% | 1008.9 hPa | 0 mm | 2.24 m/s, 227° | - | - |
| 1777991402 | 12.78° C | 87% | 1008.9 hPa | 0 mm | 2.24 m/s, 227° | - | - |
| 1777991341 | 12.78° C | 87% | 1008.9 hPa | 0 mm | 2.24 m/s, 227° | - | - |
| 1777991282 | 12.78° C | 87% | 1008.9 hPa | 0 mm | 1.34 m/s, 230° | - | - |
| 1777991221 | 12.78° C | 87% | 1008.9 hPa | 0 mm | 1.34 m/s, 230° | - | - |
| 1777991162 | 12.78° C | 87% | 1008.9 hPa | 0 mm | 2.24 m/s, 225° | - | - |
| 1777991102 | 12.78° C | 87% | 1008.9 hPa | 0 mm | 2.24 m/s, 225° | - | - |
| 1777991042 | 12.78° C | 87% | 1008.9 hPa | 0 mm | 2.24 m/s, 225° | - | - |
| 1777990982 | 12.78° C | 87% | 1008.9 hPa | 0 mm | 2.68 m/s, 220° | - | - |
| 1777990921 | 12.78° C | 87% | 1008.9 hPa | 0 mm | 2.68 m/s, 220° | - | - |
| 1777990862 | 12.78° C | 87% | 1008.9 hPa | 0 mm | 2.68 m/s, 220° | - | - |
| 1777990801 | 12.78° C | 87% | 1009 hPa | 0 mm | 0.89 m/s, 235° | - | - |
| 1777990742 | 12.78° C | 87% | 1009 hPa | 0 mm | 0.89 m/s, 235° | - | - |
* Rain since midnight (hover to see other rain measurements)
** Current wind speed in m/s (hover to see current wind gust speed)